createdAt,value
2019-03-12T00:01:24.303Z,102038.07
2019-03-12T00:03:53.298Z,102042.69
2019-03-12T00:06:21.812Z,102034.38
2019-03-12T00:08:50.362Z,102038.50
2019-03-12T00:11:20.048Z,102036.17
2019-03-12T00:13:48.554Z,102038.14
2019-03-12T00:16:18.051Z,102040.48
2019-03-12T00:18:48.564Z,102045.53
2019-03-12T00:21:17.464Z,102044.78
2019-03-12T00:23:50.525Z,102047.34
2019-03-12T00:26:27.590Z,102053.19
2019-03-12T00:28:56.048Z,102038.78
2019-03-12T00:31:26.439Z,102040.31
2019-03-12T00:33:55.166Z,102032.64
2019-03-12T00:36:26.653Z,102022.66
2019-03-12T00:38:56.681Z,102022.66
2019-03-12T00:41:28.187Z,102021.34
2019-03-12T00:44:01.033Z,102023.77
2019-03-12T00:46:29.724Z,102029.23
2019-03-12T00:48:59.085Z,102025.11
2019-03-12T00:51:27.903Z,102023.22
2019-03-12T00:53:56.716Z,102026.73
2019-03-12T00:56:25.493Z,102015.92
2019-03-12T00:58:54.233Z,102015.92
2019-03-12T01:01:22.811Z,102028.12
2019-03-12T01:03:51.241Z,102023.70
2019-03-12T01:06:28.202Z,102023.70
2019-03-12T01:08:58.071Z,102013.80
2019-03-12T01:11:26.483Z,102014.33
2019-03-12T01:13:55.054Z,102009.19
2019-03-12T01:16:25.452Z,102012.84
2019-03-12T01:18:54.318Z,102009.33
2019-03-12T01:21:28.879Z,102006.69
2019-03-12T01:23:57.786Z,102012.80
2019-03-12T01:26:27.503Z,102020.06
2019-03-12T01:28:56.077Z,102012.25
2019-03-12T01:31:24.971Z,102008.35
2019-03-12T01:34:02.616Z,102010.09
2019-03-12T01:36:31.132Z,102012.14
2019-03-12T01:39:01.727Z,102005.16
2019-03-12T01:41:30.315Z,102005.16
2019-03-12T01:43:58.719Z,102012.25
2019-03-12T01:46:30.061Z,102003.28
2019-03-12T01:49:00.951Z,102000.13
2019-03-12T01:51:31.316Z,101994.89
2019-03-12T01:54:00.709Z,101988.67
2019-03-12T01:56:29.543Z,101977.84
2019-03-12T01:58:58.188Z,101982.56
2019-03-12T02:01:26.995Z,101977.70
2019-03-12T02:03:55.501Z,101977.41
2019-03-12T02:06:25.246Z,101972.23
2019-03-12T02:08:53.646Z,101950.38
2019-03-12T02:11:22.020Z,101950.38
2019-03-12T02:13:50.491Z,101940.99
2019-03-12T02:16:18.934Z,101940.63
2019-03-12T02:18:50.774Z,101929.04
2019-03-12T02:21:22.065Z,101921.33
2019-03-12T02:23:51.665Z,101913.23
2019-03-12T02:26:20.065Z,101921.42
2019-03-12T02:28:48.457Z,101910.06
2019-03-12T02:31:17.008Z,101902.30
2019-03-12T02:33:45.466Z,101904.61
2019-03-12T02:36:13.830Z,101859.52
2019-03-12T02:38:42.281Z,101899.47
2019-03-12T02:41:10.671Z,101894.64
2019-03-12T02:43:39.478Z,101894.64
2019-03-12T02:46:07.882Z,101896.12
2019-03-12T02:48:36.339Z,101894.01
2019-03-12T02:51:04.872Z,101891.20
2019-03-12T02:53:34.066Z,101895.39
2019-03-12T02:56:02.664Z,101889.78
2019-03-12T02:58:36.873Z,101892.52
2019-03-12T03:01:01.438Z,101889.98
2019-03-12T03:03:29.961Z,101891.20
2019-03-12T03:06:04.469Z,101891.24
2019-03-12T03:08:33.882Z,101895.44
2019-03-12T03:11:02.464Z,101889.42
2019-03-12T03:13:30.988Z,101882.66
2019-03-12T03:15:59.672Z,101882.13
2019-03-12T03:18:28.196Z,101885.56
2019-03-12T03:20:56.719Z,101882.85
2019-03-12T03:23:27.981Z,101882.08
2019-03-12T03:25:56.369Z,101879.61
2019-03-12T03:28:24.862Z,101888.91
2019-03-12T03:30:53.756Z,101887.13
2019-03-12T03:33:25.397Z,101878.81
2019-03-12T03:35:53.763Z,101877.89
2019-03-12T03:38:22.270Z,101879.04
2019-03-12T03:40:51.339Z,101876.03
2019-03-12T03:43:19.778Z,101873.92
2019-03-12T03:45:48.504Z,101870.25
2019-03-12T03:48:17.211Z,101860.78
2019-03-12T03:50:45.611Z,101860.78
2019-03-12T03:53:14.079Z,101865.14
2019-03-12T03:55:42.752Z,101856.73
2019-03-12T03:58:11.275Z,101851.70
2019-03-12T04:00:39.585Z,101845.78
2019-03-12T04:03:07.879Z,101842.28
2019-03-12T04:07:18.353Z,101832.00
2019-03-12T04:09:57.259Z,101832.00
2019-03-12T04:18:40.111Z,101815.80
2019-03-12T04:21:28.963Z,101808.11
2019-03-12T04:24:07.801Z,101808.75
2019-03-12T04:26:36.421Z,101811.80
2019-03-12T04:32:42.931Z,101810.72
2019-03-12T04:44:06.032Z,101792.84
2019-03-12T04:49:52.678Z,101788.38
2019-03-12T05:03:56.389Z,101756.58
2019-03-12T05:09:41.417Z,101748.50
2019-03-12T05:15:03.590Z,101744.16
2019-03-12T05:18:07.721Z,101735.85
2019-03-12T05:23:50.563Z,101741.66
2019-03-12T05:29:29.265Z,101738.01
2019-03-12T05:43:33.494Z,101718.27
2019-03-12T05:49:00.699Z,101705.03
2019-03-12T05:51:49.583Z,101712.06
2019-03-12T05:54:33.236Z,101701.41
2019-03-12T06:00:40.569Z,101706.16
2019-03-12T06:03:07.400Z,101694.49
2019-03-12T06:09:03.987Z,101686.78
2019-03-12T06:14:21.132Z,101676.27
2019-03-12T06:23:10.375Z,101661.67
2019-03-12T06:28:55.814Z,101610.92
2019-03-12T06:37:32.026Z,101640.28
2019-03-12T06:40:09.894Z,101637.19
2019-03-12T06:46:22.905Z,101628.47
2019-03-12T06:49:29.192Z,101613.44
2019-03-12T06:52:57.500Z,101612.52
2019-03-12T06:58:33.493Z,101600.20
2019-03-12T07:01:41.612Z,101588.86
2019-03-12T07:08:01.745Z,101583.01
2019-03-12T07:10:57.164Z,101569.25
2019-03-12T07:14:03.407Z,101576.81
2019-03-12T07:17:10.043Z,101567.02
2019-03-12T07:23:31.493Z,101557.16
2019-03-12T07:34:46.396Z,101556.03
2019-03-12T07:37:48.417Z,101557.45
2019-03-12T07:40:34.114Z,101539.56
2019-03-12T07:43:21.837Z,101533.59
2019-03-12T07:46:28.274Z,101530.16
2019-03-12T07:49:07.342Z,101528.41
2019-03-12T07:52:18.667Z,101523.08
2019-03-12T07:55:25.856Z,101518.45
2019-03-12T08:01:24.931Z,101501.02
2019-03-12T08:04:14.333Z,101500.26
2019-03-12T08:10:35.282Z,101472.64
2019-03-12T08:22:56.737Z,101429.06
2019-03-12T08:29:17.798Z,101418.11
2019-03-12T08:32:14.505Z,101433.98
2019-03-12T08:35:07.166Z,101424.14
2019-03-12T08:37:54.725Z,101402.73
2019-03-12T08:41:02.568Z,101399.20
2019-03-12T08:43:59.655Z,101401.11
2019-03-12T08:47:05.976Z,101384.39
2019-03-12T08:49:45.718Z,101377.48
2019-03-12T08:52:52.280Z,101373.72
2019-03-12T08:56:02.347Z,101366.45
2019-03-12T08:59:10.201Z,101366.45
2019-03-12T09:02:24.389Z,101350.37
2019-03-12T09:05:30.751Z,101351.67
2019-03-12T09:11:19.028Z,101342.16
2019-03-12T09:14:30.562Z,101331.39
2019-03-12T09:18:06.388Z,101316.61
2019-03-12T09:31:55.284Z,101278.41
2019-03-12T09:41:00.075Z,101271.48
2019-03-12T09:43:56.062Z,101242.95
2019-03-12T09:46:45.394Z,101235.97
2019-03-12T09:53:16.826Z,101232.83
2019-03-12T10:01:45.669Z,100278.81
2019-03-12T10:08:03.190Z,101209.73
2019-03-12T10:10:59.405Z,101204.13
2019-03-12T10:13:38.168Z,101156.33
2019-03-12T10:16:25.632Z,101156.33
2019-03-12T10:37:12.270Z,101091.77
2019-03-12T10:45:45.629Z,101072.94
2019-03-12T10:48:52.032Z,101054.88
2019-03-12T10:54:26.043Z,101050.28
2019-03-12T11:00:27.026Z,101042.48
2019-03-12T11:03:05.831Z,101030.86
2019-03-12T11:06:13.768Z,101034.72
2019-03-12T11:11:41.116Z,101023.55
2019-03-12T11:14:15.106Z,100988.91
2019-03-12T11:22:47.530Z,100997.11
2019-03-12T11:25:36.130Z,100986.48
2019-03-12T11:28:14.477Z,100981.20
2019-03-12T11:31:20.255Z,100983.48
2019-03-12T11:43:37.420Z,100934.03
2019-03-12T11:46:27.394Z,100935.95
2019-03-12T11:52:24.041Z,100933.20
2019-03-12T12:00:54.881Z,100903.64
2019-03-12T12:03:56.926Z,100898.94
2019-03-12T12:06:33.506Z,100872.23
2019-03-12T12:09:46.827Z,100877.19
2019-03-12T12:21:36.382Z,100852.22
2019-03-12T12:24:05.026Z,100836.92
2019-03-12T12:26:33.550Z,100813.66
2019-03-12T12:29:33.567Z,100809.22
2019-03-12T12:32:07.495Z,100815.02
2019-03-12T12:35:14.012Z,100803.86
2019-03-12T12:38:03.024Z,100785.41
2019-03-12T12:44:00.114Z,100781.81
2019-03-12T12:46:49.368Z,100771.83
2019-03-12T12:58:54.354Z,100733.27
2019-03-12T13:09:29.512Z,100692.89
2019-03-12T13:15:30.568Z,100672.17
2019-03-12T13:20:56.533Z,100642.20
2019-03-12T13:27:05.027Z,100627.79
2019-03-12T13:33:11.092Z,100609.92
2019-03-12T13:35:22.771Z,100568.86
2019-03-12T13:38:09.115Z,100569.34
2019-03-12T13:43:46.607Z,100544.03
2019-03-12T13:49:36.138Z,100555.53
2019-03-12T13:55:38.244Z,100529.88
2019-03-12T13:58:09.038Z,100519.40
2019-03-12T14:12:15.421Z,100478.84
2019-03-12T14:14:48.379Z,100461.90
2019-03-12T14:20:45.060Z,100455.44
2019-03-12T14:23:52.844Z,100430.66
2019-03-12T14:26:41.972Z,100425.32
2019-03-12T14:29:43.113Z,100418.33
2019-03-12T14:35:04.249Z,100391.36
2019-03-12T14:37:43.303Z,100399.51
2019-03-12T14:40:55.781Z,100349.37
2019-03-12T14:46:26.807Z,100347.83
2019-03-12T14:52:14.033Z,100342.31
2019-03-12T15:00:42.760Z,100322.05
2019-03-12T15:03:44.447Z,100318.36
2019-03-12T15:09:21.063Z,100280.25
2019-03-12T15:15:07.080Z,100274.13
2019-03-12T15:17:58.194Z,100261.42
2019-03-12T15:20:50.807Z,100253.50
2019-03-12T15:26:39.873Z,100232.81
2019-03-12T15:29:41.529Z,100229.87
2019-03-12T15:37:44.083Z,100191.41
2019-03-12T15:40:12.849Z,100206.95
2019-03-12T15:42:44.379Z,100193.52
2019-03-12T15:48:34.151Z,100173.59
2019-03-12T15:54:37.598Z,100155.22
2019-03-12T15:57:14.750Z,100133.77
2019-03-12T15:59:49.063Z,100129.89
2019-03-12T16:06:20.207Z,100098.94
2019-03-12T16:15:13.533Z,100080.92
2019-03-12T16:29:40.241Z,100020.17
2019-03-12T16:32:50.993Z,100020.73
2019-03-12T16:38:38.723Z,100020.20
2019-03-12T16:44:41.336Z,99986.95
2019-03-12T16:50:24.838Z,99968.13
2019-03-12T16:56:56.834Z,99956.44
2019-03-12T17:02:19.072Z,99940.36
2019-03-12T17:05:15.155Z,99966.47
2019-03-12T17:07:43.812Z,99968.16
2019-03-12T17:10:15.822Z,99958.31
2019-03-12T17:15:33.432Z,99931.53
2019-03-12T17:18:53.806Z,99920.88
2019-03-12T17:27:55.822Z,99897.09
2019-03-12T17:30:32.226Z,99868.34
2019-03-12T17:38:58.145Z,99867.93
2019-03-12T17:41:29.043Z,99853.98
2019-03-12T17:43:58.055Z,99832.36
2019-03-12T17:46:26.684Z,99819.67
2019-03-12T17:48:58.235Z,99819.67
2019-03-12T17:54:46.936Z,99789.53
2019-03-12T17:57:19.898Z,99812.05
2019-03-12T18:03:12.813Z,99808.41
2019-03-12T18:22:05.434Z,99742.89
2019-03-12T18:24:38.946Z,99730.87
2019-03-12T18:27:19.199Z,99729.19
2019-03-12T18:29:48.562Z,99728.92
2019-03-12T18:32:23.482Z,99713.86
2019-03-12T18:35:02.087Z,99724.55
2019-03-12T18:37:30.649Z,99709.03
2019-03-12T18:40:01.323Z,99702.72
2019-03-12T18:42:51.158Z,99689.59
2019-03-12T18:51:51.581Z,99664.44
2019-03-12T18:54:26.717Z,99650.45
2019-03-12T18:57:26.054Z,99567.23
2019-03-12T19:03:03.557Z,99643.36
2019-03-12T19:05:36.928Z,99632.66
2019-03-12T19:08:05.452Z,99641.30
2019-03-12T19:10:35.673Z,99661.81
2019-03-12T19:13:10.791Z,99664.64
2019-03-12T19:16:21.081Z,99663.65
2019-03-12T19:19:01.719Z,99680.99
2019-03-12T19:24:30.633Z,99666.77
2019-03-12T19:27:36.918Z,99658.59
2019-03-12T19:39:43.354Z,99655.89
2019-03-12T19:42:52.222Z,99663.53
2019-03-12T19:48:16.983Z,99635.39
2019-03-12T19:54:06.195Z,99644.26
2019-03-12T20:02:51.967Z,99626.16
2019-03-12T20:08:34.282Z,99621.31
2019-03-12T20:14:27.876Z,99606.00
2019-03-12T20:17:29.077Z,99598.66
2019-03-12T20:20:26.888Z,99594.55
2019-03-12T20:23:16.288Z,99594.38
2019-03-12T20:25:43.092Z,99584.22
2019-03-12T20:28:30.548Z,99583.55
2019-03-12T20:31:40.612Z,99573.08
2019-03-12T20:34:21.446Z,99580.21
2019-03-12T20:37:07.786Z,99579.38
2019-03-12T20:39:57.220Z,99570.87
2019-03-12T20:42:53.363Z,99576.72
2019-03-12T20:45:42.531Z,99582.02
2019-03-12T20:54:50.639Z,99601.27
2019-03-12T21:00:28.782Z,99605.79
2019-03-12T21:09:41.932Z,99645.84
2019-03-12T21:21:15.445Z,99778.05
2019-03-12T21:24:03.946Z,99793.80
2019-03-12T21:26:51.568Z,99798.52
2019-03-12T21:29:40.872Z,99821.22
2019-03-12T21:32:29.138Z,99834.42
2019-03-12T21:35:16.603Z,99851.83
2019-03-12T21:38:08.483Z,99854.06
2019-03-12T21:41:18.649Z,99868.38
2019-03-12T21:49:47.443Z,99890.70
2019-03-12T21:55:51.342Z,99898.37
2019-03-12T22:04:32.829Z,99903.79
2019-03-12T22:07:20.165Z,99918.34
2019-03-12T22:13:10.041Z,99940.02
2019-03-12T22:18:33.069Z,99940.22
2019-03-12T22:21:02.602Z,99957.02
2019-03-12T22:23:38.225Z,99963.44
2019-03-12T22:26:06.998Z,99968.22
2019-03-12T22:28:35.615Z,99978.67
2019-03-12T22:31:47.874Z,99979.44
2019-03-12T22:37:57.436Z,99967.23
2019-03-12T22:40:32.481Z,99980.80
2019-03-12T22:49:03.552Z,100002.80
2019-03-12T22:51:36.695Z,100009.66
2019-03-12T22:54:13.795Z,100006.22
2019-03-12T23:02:50.742Z,100020.92
2019-03-12T23:05:29.620Z,100018.70
2019-03-12T23:08:29.183Z,100027.85
2019-03-12T23:14:02.263Z,100036.64
2019-03-12T23:16:22.122Z,100042.07
2019-03-12T23:18:50.673Z,100053.48
2019-03-12T23:21:20.777Z,100055.85
2019-03-12T23:36:20.918Z,100091.50
2019-03-12T23:38:51.842Z,100095.05
2019-03-12T23:41:20.268Z,100089.28
2019-03-12T23:43:51.362Z,100092.63
2019-03-12T23:52:28.376Z,100105.62
2019-03-12T23:55:06.396Z,100107.88
2019-03-12T23:58:07.959Z,100116.03
